Time;durP1;ratioP1;P1;durP2;ratioP2;P2;SDS_P1;SDS_P2;PMS_P1;PMS_P2;Temp;Humidity;BMP_temperature;BMP_pressure;BME280_temperature;BME280_humidity;BME280_pressure;Samples;Min_cycle;Max_cycle;Signal;HPM_P1;HPM_P2
2023/03/26 00:00:04;;;;;;;16.90;14.50;;;;;;;7.18;100.00;96501.25;110183;1244;69054;-73
2023/03/26 00:03:00;;;;;;;19.30;14.90;;;;;;;7.20;100.00;96508.71;110141;1243;69227;-74
2023/03/26 00:05:30;;;;;;;19.60;16.00;;;;;;;7.21;100.00;96507.28;110132;1242;58918;-71
2023/03/26 00:08:00;;;;;;;18.70;16.50;;;;;;;7.20;100.00;96503.83;110143;1243;58900;-71
2023/03/26 00:10:29;;;;;;;19.70;15.30;;;;;;;7.21;100.00;96503.46;110199;1240;71177;-70
2023/03/26 00:12:58;;;;;;;21.70;18.00;;;;;;;7.21;100.00;96504.48;110194;1242;69648;-71
2023/03/26 00:15:28;;;;;;;20.10;17.20;;;;;;;7.21;100.00;96509.33;110153;1243;69076;-71
2023/03/26 00:17:59;;;;;;;24.50;19.10;;;;;;;7.19;100.00;96508.46;110132;1243;58925;-71
2023/03/26 00:20:33;;;;;;;21.20;18.00;;;;;;;7.17;100.00;96510.30;110198;1245;58888;-71
2023/03/26 00:23:02;;;;;;;20.80;18.00;;;;;;;7.17;100.00;96512.06;110120;1240;69841;-71
2023/03/26 00:25:33;;;;;;;25.70;22.10;;;;;;;7.16;100.00;96513.32;110168;1240;69860;-71
2023/03/26 00:28:02;;;;;;;21.80;18.50;;;;;;;7.12;100.00;96518.08;110153;1243;69910;-71
2023/03/26 00:30:40;;;;;;;23.50;19.20;;;;;;;7.10;100.00;96519.78;110120;1242;58875;-71
2023/03/26 00:33:10;;;;;;;19.20;15.80;;;;;;;7.09;100.00;96521.77;110142;1244;58839;-72
2023/03/26 00:35:42;;;;;;;18.90;15.30;;;;;;;7.18;100.00;96524.84;110290;1245;69819;-71
2023/03/26 00:38:15;;;;;;;18.30;15.40;;;;;;;7.20;100.00;96526.38;110272;1242;68396;-72
2023/03/26 00:40:46;;;;;;;19.10;14.70;;;;;;;7.22;100.00;96522.94;110293;1240;69886;-72
2023/03/26 00:43:18;;;;;;;16.70;13.50;;;;;;;7.20;100.00;96524.29;110281;1241;58964;-71
2023/03/26 00:45:53;;;;;;;15.60;12.20;;;;;;;7.18;100.00;96521.55;110277;1241;59302;-72
2023/03/26 00:48:22;;;;;;;15.10;11.70;;;;;;;7.18;100.00;96523.09;110318;1243;69617;-71
2023/03/26 00:51:11;;;;;;;13.70;10.90;;;;;;;7.22;100.00;96522.41;110104;1244;69383;-72
2023/03/26 00:53:41;;;;;;;12.90;9.40;;;;;;;7.29;100.00;96515.67;110266;1243;69267;-72
2023/03/26 00:56:12;;;;;;;12.40;9.50;;;;;;;7.35;100.00;96511.61;110306;1240;58892;-73
2023/03/26 00:58:44;;;;;;;11.30;8.90;;;;;;;7.40;100.00;96509.48;110285;1242;58866;-72
2023/03/26 01:01:19;;;;;;;9.80;7.10;;;;;;;7.43;100.00;96506.13;110306;1240;70638;-71
2023/03/26 01:03:58;;;;;;;9.30;6.20;;;;;;;7.45;100.00;96510.02;110360;1244;69086;-71
2023/03/26 01:06:40;;;;;;;9.80;7.80;;;;;;;7.48;100.00;96519.78;110291;1240;69271;-72
2023/03/26 01:09:17;;;;;;;10.00;8.40;;;;;;;7.45;100.00;96524.04;110260;1242;58930;-71
2023/03/26 01:11:49;;;;;;;8.90;6.60;;;;;;;7.38;100.00;96522.30;110140;1243;58867;-71
2023/03/26 01:14:25;;;;;;;9.60;7.20;;;;;;;7.36;100.00;96525.73;110136;1242;70620;-71
2023/03/26 01:17:02;;;;;;;8.70;6.40;;;;;;;7.35;100.00;96521.65;110169;1242;69405;-71
2023/03/26 01:20:06;;;;;;;7.80;5.90;;;;;;;7.33;100.00;96528.89;109782;1240;68653;-72
2023/03/26 01:22:40;;;;;;;7.00;5.70;;;;;;;7.27;100.00;96527.48;110134;1242;58910;-71
2023/03/26 01:25:10;;;;;;;10.40;6.80;;;;;;;7.23;100.00;96526.88;110300;1242;58876;-72
2023/03/26 01:27:49;;;;;;;8.00;5.90;;;;;;;7.20;100.00;96529.48;110180;1243;69875;-71
2023/03/26 01:30:40;;;;;;;8.00;6.50;;;;;;;7.21;100.00;96532.55;110122;1243;69069;-71
2023/03/26 01:33:32;;;;;;;10.80;6.70;;;;;;;7.19;100.00;96534.13;110137;1251;69225;-71
2023/03/26 01:36:16;;;;;;;8.50;6.90;;;;;;;7.18;100.00;96537.29;110166;1242;58888;-72
2023/03/26 01:38:59;;;;;;;7.40;5.80;;;;;;;7.12;100.00;96540.64;110097;1243;58881;-71
2023/03/26 01:41:46;;;;;;;8.20;6.00;;;;;;;7.12;100.00;96544.61;110130;1245;70046;-71
2023/03/26 01:44:41;;;;;;;8.70;5.90;;;;;;;7.13;100.00;96546.64;110104;1242;69102;-71
2023/03/26 01:47:12;;;;;;;8.30;5.90;;;;;;;7.11;100.00;96545.05;110315;1245;69307;-71
2023/03/26 01:49:43;;;;;;;8.10;5.20;;;;;;;7.10;100.00;96547.36;110116;1244;58918;-71
2023/03/26 01:52:21;;;;;;;8.00;5.80;;;;;;;7.11;100.00;96547.61;110136;1242;58915;-71
2023/03/26 01:54:53;;;;;;;7.50;5.60;;;;;;;7.12;100.00;96548.42;110142;1242;69818;-71
2023/03/26 01:57:41;;;;;;;7.60;5.80;;;;;;;7.13;100.00;96546.44;110137;1241;69135;-71
2023/03/26 02:00:44;;;;;;;8.00;5.00;;;;;;;7.15;100.00;96548.38;109771;1247;69178;-70
2023/03/26 02:03:26;;;;;;;8.40;5.70;;;;;;;7.18;99.88;96550.97;110134;1242;58900;-71
2023/03/26 02:06:04;;;;;;;7.70;5.10;;;;;;;7.18;100.00;96555.63;110308;1240;58988;-72
2023/03/26 02:09:01;;;;;;;6.30;4.70;;;;;;;7.17;100.00;96561.30;110068;1244;70692;-71
2023/03/26 02:11:36;;;;;;;6.30;4.60;;;;;;;7.14;100.00;96559.05;110262;1243;67739;-72
2023/03/26 02:14:07;;;;;;;7.40;5.70;;;;;;;7.13;100.00;96567.23;110129;1242;68488;-72
2023/03/26 02:16:36;;;;;;;6.30;4.40;;;;;;;7.08;100.00;96567.41;110100;1242;58999;-72
2023/03/26 02:19:14;;;;;;;;;;;;;;;7.06;100.00;96573.31;110144;1242;58862;-72
2023/03/26 02:21:45;;;;;;;6.50;5.20;;;;;;;7.02;100.00;96575.66;110253;1243;69832;-72
2023/03/26 02:24:18;;;;;;;6.30;4.40;;;;;;;7.00;100.00;96578.05;110010;1244;69827;-73
2023/03/26 02:26:48;;;;;;;6.50;4.20;;;;;;;6.98;99.92;96574.92;110314;1246;69093;-73
2023/03/26 02:29:20;;;;;;;6.40;4.30;;;;;;;6.97;99.35;96578.45;111387;1240;58995;-73
2023/03/26 02:31:50;;;;;;;4.60;3.80;;;;;;;6.97;99.50;96582.98;111363;1242;58798;-72
2023/03/26 02:34:24;;;;;;;6.30;4.10;;;;;;;6.95;99.03;96586.78;110455;1244;69831;-71
2023/03/26 02:36:57;;;;;;;4.60;3.30;;;;;;;6.95;98.03;96589.55;109974;1242;69235;-71
2023/03/26 02:39:27;;;;;;;4.40;4.00;;;;;;;6.94;98.03;96592.90;110115;1244;69093;-72
2023/03/26 02:42:01;;;;;;;5.60;3.70;;;;;;;6.94;97.93;96592.55;110131;1244;58926;-72
2023/03/26 02:44:37;;;;;;;4.60;3.30;;;;;;;6.93;97.71;96589.48;110150;1244;58847;-71
2023/03/26 02:47:14;;;;;;;5.70;3.40;;;;;;;6.91;97.57;96590.12;110028;1243;70595;-71
2023/03/26 02:49:44;;;;;;;5.60;4.00;;;;;;;6.89;96.25;96595.27;109991;1244;69367;-71
2023/03/26 02:52:36;;;;;;;4.30;3.30;;;;;;;6.88;96.18;96596.05;109923;1242;69201;-71
2023/03/26 02:55:08;;;;;;;4.90;3.30;;;;;;;6.87;94.91;96598.23;110041;1244;58883;-71
2023/03/26 02:57:40;;;;;;;5.50;3.70;;;;;;;6.88;94.23;96594.69;109900;1246;58848;-71
2023/03/26 03:00:24;;;;;;;4.40;3.20;;;;;;;6.88;93.72;96601.58;109837;1244;70641;-72
2023/03/26 03:03:26;;;;;;;5.60;3.20;;;;;;;6.88;93.80;96606.30;109942;1244;69074;-72
2023/03/26 03:06:25;;;;;;;4.30;3.30;;;;;;;6.92;93.51;96607.60;110200;1244;69325;-72
2023/03/26 03:09:01;;;;;;;5.50;3.60;;;;;;;6.94;93.20;96609.68;109862;1244;58851;-72
2023/03/26 03:11:39;;;;;;;5.80;3.50;;;;;;;6.95;92.33;96608.54;109864;1246;59396;-72
2023/03/26 03:14:09;;;;;;;5.00;3.70;;;;;;;6.97;92.34;96607.72;110013;1245;70621;-73
2023/03/26 03:16:40;;;;;;;6.10;3.90;;;;;;;6.97;92.20;96605.15;109893;1244;69356;-72
2023/03/26 03:19:12;;;;;;;4.90;3.90;;;;;;;6.93;92.72;96602.84;109867;1244;68549;-72
2023/03/26 03:21:43;;;;;;;5.40;3.90;;;;;;;6.84;93.85;96604.13;110069;1251;58939;-72
2023/03/26 03:24:17;;;;;;;;;;;;;;;6.75;95.08;96607.42;110051;1245;58937;-72
2023/03/26 03:26:49;;;;;;;4.10;3.20;;;;;;;6.65;95.66;96603.09;110138;1244;70414;-71
2023/03/26 03:29:38;;;;;;;4.50;3.50;;;;;;;6.58;95.72;96608.01;110174;1244;69646;-71
2023/03/26 03:32:44;;;;;;;5.50;3.40;;;;;;;6.46;96.69;96607.31;109841;1246;69694;-72
2023/03/26 03:35:20;;;;;;;6.20;3.60;;;;;;;6.33;96.85;96606.34;110015;1245;58920;-72
2023/03/26 03:38:00;;;;;;;4.80;3.00;;;;;;;6.17;96.87;96603.97;109856;1246;58879;-72
2023/03/26 03:40:34;;;;;;;3.90;3.00;;;;;;;6.01;96.92;96606.23;109857;1246;70608;-72
2023/03/26 03:43:07;;;;;;;4.20;3.00;;;;;;;5.84;97.37;96602.85;110104;1244;68465;-71
2023/03/26 03:45:44;;;;;;;3.90;2.70;;;;;;;5.72;97.27;96607.23;110165;1242;69399;-71
2023/03/26 03:48:37;;;;;;;4.60;3.30;;;;;;;5.61;98.00;96607.14;110110;1240;58942;-71
2023/03/26 03:51:09;;;;;;;3.80;2.80;;;;;;;5.52;98.30;96611.89;110002;1246;58934;-71
2023/03/26 03:54:08;;;;;;;4.00;2.90;;;;;;;5.41;98.69;96613.78;110061;1241;70601;-71
2023/03/26 03:56:48;;;;;;;4.70;3.10;;;;;;;5.33;99.79;96619.68;110204;1243;69807;-71
2023/03/26 03:59:32;;;;;;;4.20;3.20;;;;;;;5.26;99.65;96619.62;109830;1245;69325;-72
2023/03/26 04:02:04;;;;;;;3.80;3.30;;;;;;;5.19;100.00;96618.52;110006;1240;58946;-71
2023/03/26 04:04:40;;;;;;;3.00;2.70;;;;;;;5.12;100.00;96617.89;110153;1242;58884;-72
2023/03/26 04:07:12;;;;;;;4.20;2.80;;;;;;;5.09;100.00;96613.41;110298;1249;69680;-71
2023/03/26 04:10:07;;;;;;;4.40;3.10;;;;;;;5.06;100.00;96613.60;110191;1249;69150;-72
2023/03/26 04:13:06;;;;;;;4.40;3.20;;;;;;;4.99;99.99;96614.37;110241;1242;69231;-72
2023/03/26 04:15:55;;;;;;;4.30;3.10;;;;;;;4.92;99.94;96611.74;110284;1242;58955;-72
2023/03/26 04:18:26;;;;;;;3.60;2.80;;;;;;;4.85;99.85;96611.45;110375;1242;58873;-71
2023/03/26 04:21:01;;;;;;;5.10;3.00;;;;;;;4.80;99.86;96608.35;110349;1242;71877;-70
2023/03/26 04:23:31;;;;;;;4.20;3.00;;;;;;;4.74;99.14;96609.56;110364;1242;69201;-71
2023/03/26 04:26:12;;;;;;;5.60;3.40;;;;;;;4.69;99.23;96611.48;110173;1243;69093;-71
2023/03/26 04:29:05;;;;;;;3.60;3.10;;;;;;;4.60;98.28;96614.95;110096;1246;58892;-71
2023/03/26 04:31:37;;;;;;;4.30;3.10;;;;;;;4.54;97.95;96616.15;110208;1240;58923;-72
2023/03/26 04:34:12;;;;;;;;;;;;;;;4.51;98.74;96623.60;110083;1246;70025;-71
2023/03/26 04:36:53;;;;;;;4.40;3.70;;;;;;;4.47;98.78;96626.91;110315;1243;68492;-72
2023/03/26 04:39:29;;;;;;;7.60;4.10;;;;;;;4.45;96.96;96629.12;110052;1246;68588;-72
2023/03/26 04:42:21;;;;;;;5.20;4.30;;;;;;;4.42;98.70;96634.83;110228;1242;58871;-71
2023/03/26 04:45:21;;;;;;;5.30;4.30;;;;;;;4.35;100.00;96630.09;109763;1253;58875;-71
2023/03/26 04:47:57;;;;;;;5.20;4.10;;;;;;;4.31;100.00;96631.88;110247;1241;70595;-72
2023/03/26 04:50:26;;;;;;;7.20;4.30;;;;;;;4.34;100.00;96637.21;109832;1241;69255;-72
2023/03/26 04:52:57;;;;;;;6.50;4.30;;;;;;;4.33;100.00;96641.92;109931;1246;69590;-72
2023/03/26 04:56:35;;;;;;;5.50;4.20;;;;;;;4.30;100.00;96640.91;110139;1245;58934;-72
2023/03/26 04:59:34;;;;;;;7.30;5.90;;;;;;;4.34;100.00;96648.80;110117;1243;58860;-71
2023/03/26 05:02:11;;;;;;;11.70;8.10;;;;;;;4.41;100.00;96649.38;110076;1245;70603;-71
2023/03/26 05:04:51;;;;;;;9.10;7.60;;;;;;;4.59;100.00;96654.20;110138;1242;69873;-72
2023/03/26 05:07:22;;;;;;;6.70;5.00;;;;;;;4.83;100.00;96655.95;109995;1246;69248;-72
2023/03/26 05:09:56;;;;;;;7.80;5.50;;;;;;;5.16;100.00;96654.98;110266;1242;58862;-71
2023/03/26 05:12:35;;;;;;;5.80;4.60;;;;;;;5.46;100.00;96657.21;110172;1242;59235;-70
2023/03/26 05:15:10;;;;;;;6.10;4.40;;;;;;;5.81;100.00;96652.02;110329;1242;70930;-71
2023/03/26 05:17:56;;;;;;;5.10;4.40;;;;;;;6.28;100.00;96648.38;110128;1241;70410;-71
2023/03/26 05:20:45;;;;;;;8.90;3.70;;;;;;;6.75;100.00;96650.02;110201;1242;69951;-72
2023/03/26 05:23:15;;;;;;;6.00;4.20;;;;;;;7.14;100.00;96651.42;110253;1240;58948;-72
2023/03/26 05:25:50;;;;;;;4.20;3.60;;;;;;;7.42;97.62;96654.60;110320;1243;58825;-71
2023/03/26 05:28:23;;;;;;;5.30;4.00;;;;;;;7.63;95.42;96649.59;110218;1242;69818;-71
2023/03/26 05:30:59;;;;;;;12.40;8.80;;;;;;;7.98;97.57;96646.17;110182;1242;69798;-72
2023/03/26 05:33:31;;;;;;;13.40;8.50;;;;;;;8.22;92.98;96646.41;110177;1241;70039;-73
2023/03/26 05:36:12;;;;;;;20.30;13.70;;;;;;;8.56;96.35;96648.05;110134;1242;58923;-72
2023/03/26 05:38:48;;;;;;;17.90;12.80;;;;;;;8.75;87.84;96654.27;110044;1244;59017;-71
2023/03/26 05:41:51;;;;;;;11.90;7.60;;;;;;;9.15;92.49;96656.46;109797;1241;71204;-71
2023/03/26 05:44:24;;;;;;;20.80;14.20;;;;;;;9.37;89.16;96656.96;110141;1243;69615;-70
2023/03/26 05:46:53;;;;;;;11.40;8.10;;;;;;;9.47;85.68;96658.27;110087;1242;68308;-72
2023/03/26 05:49:24;;;;;;;6.80;5.20;;;;;;;9.63;84.37;96656.61;110158;1242;58890;-72
2023/03/26 05:51:54;;;;;;;7.10;5.20;;;;;;;9.79;82.06;96653.98;110137;1245;58941;-71
2023/03/26 05:54:46;;;;;;;6.20;4.20;;;;;;;9.98;79.99;96653.63;109956;1242;70694;-71
2023/03/26 05:57:47;;;;;;;5.60;4.40;;;;;;;9.71;78.88;96660.18;110241;1242;69329;-71
2023/03/26 06:00:37;;;;;;;8.40;6.20;;;;;;;9.49;80.11;96668.23;110103;1243;69696;-71
2023/03/26 06:03:11;;;;;;;9.90;7.60;;;;;;;9.17;80.84;96671.23;109922;1246;58982;-71
2023/03/26 06:06:15;;;;;;;7.60;6.50;;;;;;;8.88;82.33;96669.91;110192;1243;58903;-71
2023/03/26 06:08:51;;;;;;;5.90;5.30;;;;;;;8.60;83.82;96663.89;110304;1242;69817;-71
2023/03/26 06:11:31;;;;;;;6.20;5.30;;;;;;;8.44;84.29;96665.80;110192;1242;69274;-71
2023/03/26 06:14:02;;;;;;;6.70;4.70;;;;;;;8.21;85.22;96669.23;110342;1241;69178;-71
2023/03/26 06:16:32;;;;;;;7.30;5.30;;;;;;;8.09;86.24;96665.63;109956;1244;58902;-71
2023/03/26 06:19:16;;;;;;;6.50;5.10;;;;;;;8.33;86.31;96665.74;110255;1243;58825;-71
2023/03/26 06:21:52;;;;;;;6.00;4.80;;;;;;;8.68;85.76;96664.50;110121;1241;70524;-71
2023/03/26 06:24:24;;;;;;;7.10;5.20;;;;;;;9.09;85.26;96668.61;109969;1241;67950;-71
2023/03/26 06:27:26;;;;;;;5.80;4.50;;;;;;;9.53;82.40;96673.78;109959;1241;69369;-71
2023/03/26 06:30:15;;;;;;;5.20;4.20;;;;;;;10.01;81.76;96671.45;110010;1249;59026;-72
2023/03/26 06:33:07;;;;;;;4.90;4.10;;;;;;;10.49;80.53;96670.64;109952;1245;58845;-72
2023/03/26 06:35:44;;;;;;;6.20;4.40;;;;;;;11.06;78.28;96675.51;110271;1241;70505;-72
2023/03/26 06:38:14;;;;;;;5.30;3.90;;;;;;;11.31;74.09;96680.53;110175;1245;69029;-72
2023/03/26 06:40:43;;;;;;;4.70;4.10;;;;;;;11.37;71.85;96683.48;110028;1245;68384;-72
2023/03/26 06:43:40;;;;;;;5.40;3.70;;;;;;;11.31;70.98;96686.48;109782;1248;58938;-72
2023/03/26 06:46:35;;;;;;;4.70;4.00;;;;;;;11.29;71.99;96693.63;110268;1242;58893;-72
2023/03/26 06:49:16;;;;;;;4.80;3.70;;;;;;;11.14;71.43;96697.15;109987;1240;388950;-72
2023/03/26 06:52:04;;;;;;;5.90;4.50;;;;;;;10.71;71.90;96695.63;110271;1242;69022;-72
2023/03/26 06:55:04;;;;;;;5.00;3.30;;;;;;;10.82;72.43;96698.70;110142;1241;69396;-72
2023/03/26 06:57:59;;;;;;;4.80;4.30;;;;;;;10.99;72.56;96693.73;110190;1241;58947;-72
2023/03/26 07:00:45;;;;;;;5.30;4.00;;;;;;;11.02;72.27;96691.38;110267;1243;58915;-72
2023/03/26 07:03:37;;;;;;;6.20;3.90;;;;;;;11.16;70.19;96688.26;110001;1243;69863;-72
2023/03/26 07:06:24;;;;;;;5.10;3.70;;;;;;;11.57;71.05;96687.81;110269;1240;69210;-72
2023/03/26 07:09:12;;;;;;;5.40;4.30;;;;;;;12.05;68.07;96687.09;110230;1242;69500;-72
2023/03/26 07:11:59;;;;;;;5.30;3.70;;;;;;;12.35;66.13;96689.41;110120;1242;58907;-72
2023/03/26 07:14:48;;;;;;;4.10;3.00;;;;;;;12.27;64.66;96687.04;110248;1242;59303;-72
2023/03/26 07:17:39;;;;;;;3.90;3.50;;;;;;;12.61;66.36;96684.36;109912;1241;71183;-71
2023/03/26 07:20:16;;;;;;;3.30;2.60;;;;;;;13.03;61.82;96683.69;110106;1245;69588;-72
2023/03/26 07:22:45;;;;;;;;;;;;;;;13.22;57.55;96680.46;110129;1246;69279;-72
2023/03/26 07:25:18;;;;;;;3.10;2.70;;;;;;;13.13;55.83;96680.29;110263;1242;58881;-72
2023/03/26 07:28:27;;;;;;;3.30;2.80;;;;;;;13.49;56.61;96681.94;110313;1242;58906;-72
2023/03/26 07:31:37;;;;;;;3.20;2.20;;;;;;;13.50;55.85;96682.91;110096;1241;71604;-72
2023/03/26 07:34:36;;;;;;;3.50;2.40;;;;;;;13.41;56.10;96683.17;110273;1242;69809;-72
2023/03/26 07:37:44;;;;;;;;;;;;;;;13.41;56.89;96679.52;110180;1242;70194;-72
2023/03/26 07:40:27;;;;;;;3.20;2.60;;;;;;;13.62;56.84;96678.18;110135;1243;58865;-72
2023/03/26 07:43:29;;;;;;;4.70;2.90;;;;;;;13.88;55.00;96675.83;110135;1242;58931;-72
2023/03/26 07:46:24;;;;;;;4.10;2.80;;;;;;;14.21;54.99;96669.95;110137;1241;70545;-73
2023/03/26 07:49:13;;;;;;;3.00;2.20;;;;;;;14.43;54.36;96660.27;110181;1241;69139;-72
2023/03/26 07:52:18;;;;;;;3.30;2.00;;;;;;;14.58;54.94;96659.48;109610;1248;69687;-73
2023/03/26 07:55:04;;;;;;;3.40;2.40;;;;;;;14.41;53.58;96662.05;110134;1242;58935;-73
2023/03/26 07:57:58;;;;;;;3.60;2.80;;;;;;;14.36;54.20;96667.21;110177;1242;58826;-72
2023/03/26 08:00:51;;;;;;;4.20;3.10;;;;;;;14.46;54.72;96665.26;110127;1241;70633;-72
2023/03/26 08:03:45;;;;;;;3.80;2.80;;;;;;;14.80;53.16;96660.06;110100;1241;69294;-72
2023/03/26 08:06:58;;;;;;;3.90;2.70;;;;;;;14.81;52.33;96661.75;109766;1251;69253;-72
2023/03/26 08:10:17;;;;;;;4.40;3.00;;;;;;;14.55;51.70;96663.89;110255;1243;58932;-72
2023/03/26 08:13:21;;;;;;;3.90;2.70;;;;;;;14.22;52.55;96659.15;109817;1244;58823;-73
2023/03/26 08:16:09;;;;;;;3.00;2.30;;;;;;;14.16;53.57;96659.48;110181;1242;71111;-73
2023/03/26 08:19:00;;;;;;;4.50;2.80;;;;;;;14.26;53.14;96659.48;110456;1241;69720;-73
2023/03/26 08:21:41;;;;;;;3.80;2.60;;;;;;;14.82;51.48;96659.33;110626;1244;69193;-73
2023/03/26 08:24:26;;;;;;;4.20;2.70;;;;;;;14.57;49.46;96660.73;110713;1243;58836;-73
2023/03/26 08:27:20;;;;;;;3.60;2.60;;;;;;;14.10;51.45;96667.70;110937;1240;58791;-73
2023/03/26 08:30:12;;;;;;;3.10;2.20;;;;;;;14.04;53.07;96669.95;110264;1242;70610;-74
2023/03/26 08:32:47;;;;;;;4.40;3.20;;;;;;;13.97;52.03;96668.29;110185;1242;69091;-72
2023/03/26 08:35:16;;;;;;;3.30;2.80;;;;;;;14.06;51.48;96661.63;110220;1242;70062;-73
2023/03/26 08:37:45;;;;;;;5.40;4.30;;;;;;;14.65;51.38;96658.59;110280;1242;58926;-72
2023/03/26 08:40:30;;;;;;;5.40;3.10;;;;;;;15.05;49.10;96662.89;110149;1242;58928;-73
2023/03/26 08:43:29;;;;;;;3.20;2.00;;;;;;;15.20;48.61;96657.87;110187;1241;71210;-72
2023/03/26 08:46:26;;;;;;;3.00;2.30;;;;;;;14.93;49.59;96661.28;110151;1242;69653;-73
2023/03/26 08:49:16;;;;;;;3.60;2.50;;;;;;;14.91;49.90;96665.24;110251;1241;69408;-73
2023/03/26 08:51:54;;;;;;;3.90;3.40;;;;;;;14.74;49.55;96670.46;110248;1240;58931;-72
2023/03/26 08:54:46;;;;;;;3.50;2.80;;;;;;;14.76;49.58;96669.16;110079;1245;58938;-72
2023/03/26 08:58:00;;;;;;;2.70;1.80;;;;;;;14.92;46.83;96669.55;109927;1245;70611;-73
2023/03/26 09:00:36;;;;;;;2.00;1.80;;;;;;;14.97;46.28;96671.07;110052;1241;69156;-72
2023/03/26 09:03:29;;;;;;;2.50;2.10;;;;;;;15.44;45.27;96672.08;110072;1241;69252;-72
2023/03/26 09:06:13;;;;;;;3.20;2.40;;;;;;;15.69;44.38;96670.70;110265;1241;58961;-71
2023/03/26 09:08:45;;;;;;;3.60;2.20;;;;;;;15.04;45.23;96670.43;110175;1243;58871;-72
2023/03/26 09:11:21;;;;;;;3.90;2.10;;;;;;;14.69;47.30;96671.27;110168;1241;70872;-74
2023/03/26 09:13:59;;;;;;;3.00;2.50;;;;;;;14.57;46.49;96672.86;109849;1242;69812;-72
2023/03/26 09:16:54;;;;;;;3.30;2.10;;;;;;;14.19;46.68;96676.15;110153;1242;69874;-72
2023/03/26 09:19:42;;;;;;;3.40;2.30;;;;;;;14.20;47.69;96673.27;110262;1241;59002;-72
2023/03/26 09:22:22;;;;;;;2.40;1.90;;;;;;;14.06;47.50;96670.36;110113;1241;58901;-72
2023/03/26 09:25:16;;;;;;;3.50;1.80;;;;;;;14.26;47.97;96672.40;110162;1242;71191;-73
2023/03/26 09:28:13;;;;;;;4.20;3.30;;;;;;;14.28;47.07;96666.66;110086;1242;69234;-72
2023/03/26 09:30:57;;;;;;;22.00;15.00;;;;;;;14.51;46.97;96663.61;110166;1242;70018;-72
2023/03/26 09:33:30;;;;;;;10.10;8.50;;;;;;;14.79;46.33;96669.80;110131;1242;58885;-72
2023/03/26 09:36:20;;;;;;;25.40;19.50;;;;;;;14.78;46.84;96666.36;110312;1242;58875;-73
2023/03/26 09:39:15;;;;;;;;;;;;;;;15.41;46.60;96669.39;110159;1242;70371;-74
2023/03/26 09:42:23;;;;;;;7.30;4.50;;;;;;;15.52;46.06;96663.67;110111;1242;67494;-72
2023/03/26 09:44:58;;;;;;;3.70;2.70;;;;;;;15.75;45.16;96662.27;110129;1240;68520;-73
2023/03/26 09:47:26;;;;;;;3.40;1.90;;;;;;;16.39;45.07;96662.62;110160;1240;58870;-73
2023/03/26 09:50:13;;;;;;;3.60;1.60;;;;;;;15.59;41.31;96660.96;110434;1242;58820;-73
2023/03/26 09:52:49;;;;;;;3.00;1.40;;;;;;;14.81;42.61;96664.27;110384;1240;70171;-72
2023/03/26 09:55:48;;;;;;;3.00;1.50;;;;;;;14.30;44.15;96665.38;110267;1241;68526;-73
2023/03/26 09:58:32;;;;;;;1.90;1.60;;;;;;;14.66;44.49;96663.52;110446;1241;68730;-72
2023/03/26 10:01:20;;;;;;;1.80;1.50;;;;;;;14.24;44.91;96669.49;110445;1241;58884;-70
2023/03/26 10:04:05;;;;;;;2.90;2.10;;;;;;;14.62;45.71;96661.02;110246;1241;58929;-72
2023/03/26 10:07:02;;;;;;;1.70;1.50;;;;;;;14.88;43.96;96662.55;110377;1241;70373;-72
2023/03/26 10:10:07;;;;;;;4.10;2.90;;;;;;;14.95;43.15;96660.41;110404;1241;69543;-72
2023/03/26 10:12:42;;;;;;;3.70;2.30;;;;;;;14.91;43.64;96657.34;110527;1241;69263;-72
2023/03/26 10:15:30;;;;;;;4.20;3.20;;;;;;;14.98;43.42;96660.00;110359;1243;58928;-72
2023/03/26 10:18:08;;;;;;;2.10;1.00;;;;;;;15.19;41.98;96655.65;110594;1241;58869;-72
2023/03/26 10:21:02;;;;;;;1.20;1.00;;;;;;;14.99;42.09;96652.64;110457;1240;70376;-72
2023/03/26 10:24:13;;;;;;;1.80;1.00;;;;;;;15.38;42.37;96647.73;110425;1241;69689;-72
2023/03/26 10:26:45;;;;;;;2.10;1.10;;;;;;;16.44;40.87;96648.55;109759;1244;68141;-73
2023/03/26 10:30:03;;;;;;;0.90;0.80;;;;;;;17.08;37.92;96643.33;110216;1247;58911;-72
2023/03/26 10:33:11;;;;;;;1.80;0.90;;;;;;;17.89;37.76;96638.97;110154;1243;58877;-72
2023/03/26 10:35:46;;;;;;;0.90;0.70;;;;;;;18.74;36.53;96637.00;110288;1238;71171;-72
2023/03/26 10:38:45;;;;;;;0.80;0.70;;;;;;;18.99;35.58;96633.70;110457;1241;69507;-72
2023/03/26 10:41:23;;;;;;;1.30;0.80;;;;;;;18.56;35.41;96637.13;110567;1242;68336;-72
2023/03/26 10:44:35;;;;;;;1.30;0.80;;;;;;;17.78;36.23;96641.63;110660;1239;58937;-72
2023/03/26 10:47:14;;;;;;;1.80;0.90;;;;;;;17.25;36.84;96634.09;110346;1241;58893;-72
2023/03/26 10:50:03;;;;;;;2.60;1.20;;;;;;;17.82;36.69;96632.67;110284;1241;70400;-72
2023/03/26 10:52:41;;;;;;;2.40;1.10;;;;;;;17.17;37.19;96628.27;110183;1241;68152;-72
2023/03/26 10:55:21;;;;;;;1.40;0.80;;;;;;;16.64;38.12;96628.81;110185;1240;69877;-71
2023/03/26 10:57:57;;;;;;;1.30;0.80;;;;;;;16.90;37.94;96628.77;110520;1241;58843;-72
2023/03/26 11:00:28;;;;;;;1.10;0.70;;;;;;;17.50;36.82;96626.40;110461;1240;58911;-73
2023/03/26 11:03:24;;;;;;;1.70;0.80;;;;;;;17.80;35.30;96623.40;110474;1240;69817;-72
2023/03/26 11:06:15;;;;;;;1.30;0.70;;;;;;;17.52;36.00;96627.08;110332;1240;69027;-72
2023/03/26 11:09:17;;;;;;;0.50;0.40;;;;;;;16.51;35.76;96617.55;110314;1241;69894;-73
2023/03/26 11:12:03;;;;;;;1.20;0.70;;;;;;;15.82;37.10;96631.52;110450;1241;58923;-72
2023/03/26 11:15:19;;;;;;;1.90;0.70;;;;;;;15.15;38.05;96625.23;110422;1241;58856;-73
2023/03/26 11:17:51;;;;;;;1.30;0.70;;;;;;;14.91;37.29;96624.30;110362;1240;69603;-72
2023/03/26 11:20:41;;;;;;;0.80;0.60;;;;;;;14.74;37.52;96622.44;110353;1241;69081;-73
2023/03/26 11:23:25;;;;;;;2.30;0.70;;;;;;;15.22;37.08;96616.80;110448;1242;69335;-72
2023/03/26 11:26:05;;;;;;;0.60;0.50;;;;;;;16.04;37.04;96610.13;110241;1241;58893;-73
2023/03/26 11:28:51;;;;;;;0.60;0.40;;;;;;;16.81;35.32;96607.38;110181;1242;58884;-72
2023/03/26 11:31:34;;;;;;;0.40;0.40;;;;;;;16.87;34.18;96610.13;110226;1248;71204;-72
2023/03/26 11:34:10;;;;;;;0.50;0.50;;;;;;;16.30;34.64;96600.70;110258;1244;69497;-72
2023/03/26 11:36:44;;;;;;;1.00;0.70;;;;;;;15.97;35.76;96608.47;110316;1243;69081;-72
2023/03/26 11:39:24;;;;;;;1.10;0.50;;;;;;;15.61;36.46;96604.90;110122;1249;58906;-71
2023/03/26 11:42:06;;;;;;;0.50;0.40;;;;;;;15.03;36.45;96601.86;110264;1242;58800;-72
2023/03/26 11:44:55;;;;;;;0.70;0.50;;;;;;;15.03;36.48;96602.02;110140;1241;70531;-72
2023/03/26 11:47:34;;;;;;;0.60;0.50;;;;;;;14.76;35.55;96598.86;110146;1242;69213;-73
2023/03/26 11:50:07;;;;;;;2.00;0.70;;;;;;;14.97;36.19;96596.24;110391;1241;69278;-72
2023/03/26 11:52:36;;;;;;;1.50;0.70;;;;;;;15.17;37.13;96598.88;110297;1241;58958;-72
2023/03/26 11:55:05;;;;;;;0.90;0.50;;;;;;;15.41;36.75;96602.17;110376;1238;58822;-71
2023/03/26 11:57:37;;;;;;;0.80;0.80;;;;;;;15.36;36.85;96598.25;110500;1238;71182;-72
2023/03/26 12:00:26;;;;;;;0.80;0.50;;;;;;;15.73;37.13;96593.44;110455;1243;69202;-72
2023/03/26 12:02:57;;;;;;;1.10;0.70;;;;;;;16.93;35.54;96586.69;110339;1241;68895;-72
2023/03/26 12:05:35;;;;;;;0.50;0.50;;;;;;;18.11;34.38;96580.85;110209;1241;58889;-71
2023/03/26 12:08:20;;;;;;;1.40;0.70;;;;;;;18.91;31.63;96573.70;110357;1240;58948;-72
2023/03/26 12:11:00;;;;;;;1.50;0.50;;;;;;;18.77;29.95;96577.64;110087;1241;69634;-73
2023/03/26 12:13:42;;;;;;;0.60;0.40;;;;;;;18.56;30.96;96573.29;110199;1244;68480;-72
2023/03/26 12:16:15;;;;;;;0.60;0.50;;;;;;;17.87;32.07;96569.16;110245;1239;69956;-71
2023/03/26 12:18:59;;;;;;;0.80;0.40;;;;;;;16.83;33.43;96570.46;110335;1242;58871;-73
2023/03/26 12:21:44;;;;;;;1.50;0.70;;;;;;;16.45;33.75;96573.02;110546;1241;58936;-70
2023/03/26 12:24:31;;;;;;;0.60;0.50;;;;;;;16.91;34.01;96569.90;110411;1242;70453;-71
2023/03/26 12:27:20;;;;;;;0.80;0.70;;;;;;;17.67;33.10;96559.31;110284;1238;69216;-71
2023/03/26 12:29:58;;;;;;;0.80;0.60;;;;;;;17.72;31.97;96556.31;110327;1241;69112;-71
2023/03/26 12:32:32;;;;;;;1.00;0.60;;;;;;;17.78;31.58;96559.70;110216;1241;58848;-72
2023/03/26 12:35:26;;;;;;;0.90;0.60;;;;;;;17.68;30.93;96556.03;110188;1242;58870;-72
2023/03/26 12:38:23;;;;;;;1.10;0.60;;;;;;;17.76;31.70;96551.30;110199;1240;70665;-72